sensor_id;sensor_type;location;lat;lon;timestamp;P1;durP1;ratioP1;P2;durP2;ratioP2
72198;SDS011;60103;51.014;16.992;2023-04-16T00:01:09;28.30;;;11.40;;
72198;SDS011;60103;51.014;16.992;2023-04-16T00:03:39;31.10;;;14.40;;
72198;SDS011;60103;51.014;16.992;2023-04-16T00:06:09;28.90;;;12.70;;
72198;SDS011;60103;51.014;16.992;2023-04-16T00:08:40;25.40;;;12.40;;
72198;SDS011;60103;51.014;16.992;2023-04-16T00:11:10;23.60;;;12.30;;
72198;SDS011;60103;51.014;16.992;2023-04-16T00:13:39;25.30;;;11.80;;
72198;SDS011;60103;51.014;16.992;2023-04-16T00:16:08;24.30;;;11.70;;
72198;SDS011;60103;51.014;16.992;2023-04-16T00:18:37;25.80;;;13.20;;
72198;SDS011;60103;51.014;16.992;2023-04-16T00:21:06;23.00;;;10.80;;
72198;SDS011;60103;51.014;16.992;2023-04-16T00:23:35;24.40;;;11.30;;
72198;SDS011;60103;51.014;16.992;2023-04-16T00:26:04;26.80;;;12.20;;
72198;SDS011;60103;51.014;16.992;2023-04-16T00:28:32;22.90;;;11.20;;
72198;SDS011;60103;51.014;16.992;2023-04-16T00:31:01;22.90;;;10.30;;
72198;SDS011;60103;51.014;16.992;2023-04-16T00:33:30;21.30;;;9.70;;
72198;SDS011;60103;51.014;16.992;2023-04-16T00:35:59;21.20;;;9.50;;
72198;SDS011;60103;51.014;16.992;2023-04-16T00:38:27;19.40;;;9.10;;
72198;SDS011;60103;51.014;16.992;2023-04-16T00:40:57;19.30;;;9.50;;
72198;SDS011;60103;51.014;16.992;2023-04-16T00:43:26;17.90;;;8.10;;
72198;SDS011;60103;51.014;16.992;2023-04-16T00:45:55;20.00;;;9.70;;
72198;SDS011;60103;51.014;16.992;2023-04-16T00:48:24;18.80;;;8.80;;
72198;SDS011;60103;51.014;16.992;2023-04-16T00:50:55;19.90;;;9.10;;
72198;SDS011;60103;51.014;16.992;2023-04-16T00:53:24;17.50;;;8.30;;
72198;SDS011;60103;51.014;16.992;2023-04-16T00:55:52;20.50;;;9.80;;
72198;SDS011;60103;51.014;16.992;2023-04-16T00:58:23;16.50;;;7.60;;
72198;SDS011;60103;51.014;16.992;2023-04-16T01:00:52;21.00;;;10.00;;
72198;SDS011;60103;51.014;16.992;2023-04-16T01:03:21;18.80;;;9.10;;
72198;SDS011;60103;51.014;16.992;2023-04-16T01:05:50;16.30;;;7.80;;
72198;SDS011;60103;51.014;16.992;2023-04-16T01:08:19;17.10;;;7.90;;
72198;SDS011;60103;51.014;16.992;2023-04-16T01:10:49;18.10;;;8.70;;
72198;SDS011;60103;51.014;16.992;2023-04-16T01:13:17;18.30;;;9.30;;
72198;SDS011;60103;51.014;16.992;2023-04-16T01:15:46;18.30;;;9.50;;
72198;SDS011;60103;51.014;16.992;2023-04-16T01:18:15;20.60;;;10.20;;
72198;SDS011;60103;51.014;16.992;2023-04-16T01:20:45;22.00;;;10.60;;
72198;SDS011;60103;51.014;16.992;2023-04-16T01:23:14;19.50;;;10.30;;
72198;SDS011;60103;51.014;16.992;2023-04-16T01:25:45;19.90;;;9.80;;
72198;SDS011;60103;51.014;16.992;2023-04-16T01:28:14;21.80;;;11.10;;
72198;SDS011;60103;51.014;16.992;2023-04-16T01:30:43;19.00;;;9.30;;
72198;SDS011;60103;51.014;16.992;2023-04-16T01:33:23;23.90;;;11.70;;
72198;SDS011;60103;51.014;16.992;2023-04-16T01:35:52;24.20;;;11.00;;
72198;SDS011;60103;51.014;16.992;2023-04-16T01:38:21;21.80;;;11.10;;
72198;SDS011;60103;51.014;16.992;2023-04-16T01:40:54;21.80;;;10.50;;
72198;SDS011;60103;51.014;16.992;2023-04-16T01:43:23;19.00;;;9.60;;
72198;SDS011;60103;51.014;16.992;2023-04-16T01:45:53;21.80;;;10.20;;
72198;SDS011;60103;51.014;16.992;2023-04-16T01:48:43;21.20;;;9.40;;
72198;SDS011;60103;51.014;16.992;2023-04-16T01:51:12;17.20;;;8.40;;
72198;SDS011;60103;51.014;16.992;2023-04-16T01:53:40;20.60;;;10.30;;
72198;SDS011;60103;51.014;16.992;2023-04-16T01:56:09;22.20;;;9.90;;
72198;SDS011;60103;51.014;16.992;2023-04-16T01:58:38;18.40;;;8.30;;
72198;SDS011;60103;51.014;16.992;2023-04-16T02:01:10;19.30;;;9.90;;
72198;SDS011;60103;51.014;16.992;2023-04-16T02:03:39;21.70;;;10.80;;
72198;SDS011;60103;51.014;16.992;2023-04-16T02:06:09;23.00;;;10.00;;
72198;SDS011;60103;51.014;16.992;2023-04-16T02:08:37;20.70;;;10.30;;
72198;SDS011;60103;51.014;16.992;2023-04-16T02:11:07;27.30;;;11.70;;
72198;SDS011;60103;51.014;16.992;2023-04-16T02:13:35;23.50;;;10.80;;
72198;SDS011;60103;51.014;16.992;2023-04-16T02:16:04;24.50;;;11.40;;
72198;SDS011;60103;51.014;16.992;2023-04-16T02:19:03;22.10;;;10.60;;
72198;SDS011;60103;51.014;16.992;2023-04-16T02:21:34;21.10;;;10.30;;
72198;SDS011;60103;51.014;16.992;2023-04-16T02:24:02;21.60;;;10.10;;
72198;SDS011;60103;51.014;16.992;2023-04-16T02:26:32;26.20;;;12.30;;
72198;SDS011;60103;51.014;16.992;2023-04-16T02:29:05;24.30;;;12.00;;
72198;SDS011;60103;51.014;16.992;2023-04-16T02:31:43;24.60;;;11.90;;
72198;SDS011;60103;51.014;16.992;2023-04-16T02:34:12;23.80;;;11.50;;
72198;SDS011;60103;51.014;16.992;2023-04-16T02:36:42;26.60;;;12.80;;
72198;SDS011;60103;51.014;16.992;2023-04-16T02:39:11;28.30;;;13.40;;
72198;SDS011;60103;51.014;16.992;2023-04-16T02:41:39;29.20;;;12.80;;
72198;SDS011;60103;51.014;16.992;2023-04-16T02:44:08;28.10;;;12.20;;
72198;SDS011;60103;51.014;16.992;2023-04-16T02:46:37;26.10;;;12.90;;
72198;SDS011;60103;51.014;16.992;2023-04-16T02:49:05;25.80;;;12.40;;
72198;SDS011;60103;51.014;16.992;2023-04-16T02:51:34;24.10;;;12.30;;
72198;SDS011;60103;51.014;16.992;2023-04-16T02:54:03;28.60;;;11.90;;
72198;SDS011;60103;51.014;16.992;2023-04-16T02:56:32;29.10;;;12.90;;
72198;SDS011;60103;51.014;16.992;2023-04-16T02:59:01;27.70;;;13.30;;
72198;SDS011;60103;51.014;16.992;2023-04-16T03:01:29;25.10;;;11.70;;
72198;SDS011;60103;51.014;16.992;2023-04-16T03:03:58;28.90;;;12.60;;
72198;SDS011;60103;51.014;16.992;2023-04-16T03:06:27;23.30;;;12.20;;
72198;SDS011;60103;51.014;16.992;2023-04-16T03:08:57;26.90;;;12.30;;
72198;SDS011;60103;51.014;16.992;2023-04-16T03:11:25;24.00;;;11.90;;
72198;SDS011;60103;51.014;16.992;2023-04-16T03:13:54;26.60;;;12.40;;
72198;SDS011;60103;51.014;16.992;2023-04-16T03:16:23;25.50;;;12.60;;
72198;SDS011;60103;51.014;16.992;2023-04-16T03:18:52;25.60;;;11.40;;
72198;SDS011;60103;51.014;16.992;2023-04-16T03:21:21;24.10;;;11.60;;
72198;SDS011;60103;51.014;16.992;2023-04-16T03:23:50;29.20;;;12.40;;
72198;SDS011;60103;51.014;16.992;2023-04-16T03:26:21;26.30;;;13.30;;
72198;SDS011;60103;51.014;16.992;2023-04-16T03:28:50;24.90;;;12.00;;
72198;SDS011;60103;51.014;16.992;2023-04-16T03:31:19;26.90;;;12.70;;
72198;SDS011;60103;51.014;16.992;2023-04-16T03:33:47;23.90;;;12.20;;
72198;SDS011;60103;51.014;16.992;2023-04-16T03:36:17;29.10;;;13.70;;
72198;SDS011;60103;51.014;16.992;2023-04-16T03:38:47;26.20;;;12.80;;
72198;SDS011;60103;51.014;16.992;2023-04-16T03:41:16;27.40;;;13.10;;
72198;SDS011;60103;51.014;16.992;2023-04-16T03:43:45;26.60;;;12.40;;
72198;SDS011;60103;51.014;16.992;2023-04-16T03:46:13;27.90;;;13.40;;
72198;SDS011;60103;51.014;16.992;2023-04-16T03:48:42;26.50;;;12.20;;
72198;SDS011;60103;51.014;16.992;2023-04-16T03:51:11;27.00;;;13.10;;
72198;SDS011;60103;51.014;16.992;2023-04-16T03:53:40;29.80;;;13.50;;
72198;SDS011;60103;51.014;16.992;2023-04-16T03:56:09;29.90;;;13.40;;
72198;SDS011;60103;51.014;16.992;2023-04-16T03:58:37;24.00;;;12.90;;
72198;SDS011;60103;51.014;16.992;2023-04-16T04:01:07;27.40;;;14.00;;
72198;SDS011;60103;51.014;16.992;2023-04-16T04:03:36;30.50;;;14.60;;
72198;SDS011;60103;51.014;16.992;2023-04-16T04:06:06;28.50;;;14.00;;
72198;SDS011;60103;51.014;16.992;2023-04-16T04:08:37;31.40;;;15.30;;
72198;SDS011;60103;51.014;16.992;2023-04-16T04:11:06;27.50;;;13.30;;
72198;SDS011;60103;51.014;16.992;2023-04-16T04:13:35;33.60;;;15.30;;
72198;SDS011;60103;51.014;16.992;2023-04-16T04:16:04;31.60;;;14.80;;
72198;SDS011;60103;51.014;16.992;2023-04-16T04:18:34;30.80;;;14.20;;
72198;SDS011;60103;51.014;16.992;2023-04-16T04:21:05;33.00;;;15.40;;
72198;SDS011;60103;51.014;16.992;2023-04-16T04:23:35;31.70;;;14.90;;
72198;SDS011;60103;51.014;16.992;2023-04-16T04:26:05;32.00;;;14.90;;
72198;SDS011;60103;51.014;16.992;2023-04-16T04:28:35;35.10;;;15.60;;
72198;SDS011;60103;51.014;16.992;2023-04-16T04:31:04;33.40;;;15.30;;
72198;SDS011;60103;51.014;16.992;2023-04-16T04:33:33;36.30;;;16.00;;
72198;SDS011;60103;51.014;16.992;2023-04-16T04:36:01;38.90;;;16.60;;
72198;SDS011;60103;51.014;16.992;2023-04-16T04:38:32;33.10;;;15.60;;
72198;SDS011;60103;51.014;16.992;2023-04-16T04:41:01;37.40;;;17.10;;
72198;SDS011;60103;51.014;16.992;2023-04-16T04:43:33;36.50;;;17.40;;
72198;SDS011;60103;51.014;16.992;2023-04-16T04:46:02;42.60;;;19.00;;
72198;SDS011;60103;51.014;16.992;2023-04-16T04:48:31;46.90;;;22.00;;
72198;SDS011;60103;51.014;16.992;2023-04-16T04:50:59;48.20;;;21.20;;
72198;SDS011;60103;51.014;16.992;2023-04-16T04:53:32;44.40;;;20.60;;
72198;SDS011;60103;51.014;16.992;2023-04-16T04:56:00;34.60;;;17.60;;
72198;SDS011;60103;51.014;16.992;2023-04-16T04:58:40;36.00;;;18.20;;
72198;SDS011;60103;51.014;16.992;2023-04-16T05:01:09;30.10;;;14.10;;
72198;SDS011;60103;51.014;16.992;2023-04-16T05:03:38;28.40;;;12.70;;
72198;SDS011;60103;51.014;16.992;2023-04-16T05:06:07;24.80;;;11.80;;
72198;SDS011;60103;51.014;16.992;2023-04-16T05:08:35;22.50;;;11.00;;
72198;SDS011;60103;51.014;16.992;2023-04-16T05:11:05;24.50;;;11.30;;
72198;SDS011;60103;51.014;16.992;2023-04-16T05:13:33;23.50;;;11.00;;
72198;SDS011;60103;51.014;16.992;2023-04-16T05:16:03;25.30;;;11.90;;
72198;SDS011;60103;51.014;16.992;2023-04-16T05:18:32;26.80;;;12.50;;
72198;SDS011;60103;51.014;16.992;2023-04-16T05:21:01;24.20;;;11.90;;
72198;SDS011;60103;51.014;16.992;2023-04-16T05:23:31;21.00;;;10.00;;
72198;SDS011;60103;51.014;16.992;2023-04-16T05:26:01;18.80;;;9.00;;
72198;SDS011;60103;51.014;16.992;2023-04-16T05:28:30;25.60;;;12.10;;
72198;SDS011;60103;51.014;16.992;2023-04-16T05:30:59;29.80;;;12.40;;
72198;SDS011;60103;51.014;16.992;2023-04-16T05:33:28;25.80;;;12.50;;
72198;SDS011;60103;51.014;16.992;2023-04-16T05:35:57;24.50;;;11.40;;
72198;SDS011;60103;51.014;16.992;2023-04-16T05:38:25;23.50;;;12.30;;
72198;SDS011;60103;51.014;16.992;2023-04-16T05:40:54;23.80;;;11.10;;
72198;SDS011;60103;51.014;16.992;2023-04-16T05:43:23;21.00;;;10.90;;
72198;SDS011;60103;51.014;16.992;2023-04-16T05:45:52;21.10;;;10.00;;
72198;SDS011;60103;51.014;16.992;2023-04-16T05:48:21;20.40;;;10.20;;
72198;SDS011;60103;51.014;16.992;2023-04-16T05:50:51;19.40;;;9.40;;
72198;SDS011;60103;51.014;16.992;2023-04-16T05:53:21;23.40;;;11.40;;
72198;SDS011;60103;51.014;16.992;2023-04-16T05:59:09;21.30;;;10.80;;
72198;SDS011;60103;51.014;16.992;2023-04-16T06:01:39;25.30;;;12.00;;
72198;SDS011;60103;51.014;16.992;2023-04-16T06:04:08;24.10;;;12.60;;
72198;SDS011;60103;51.014;16.992;2023-04-16T06:06:38;26.60;;;12.50;;
72198;SDS011;60103;51.014;16.992;2023-04-16T06:09:07;31.00;;;14.30;;
72198;SDS011;60103;51.014;16.992;2023-04-16T06:11:36;28.50;;;13.90;;
72198;SDS011;60103;51.014;16.992;2023-04-16T06:14:05;30.10;;;14.80;;
72198;SDS011;60103;51.014;16.992;2023-04-16T06:16:35;32.00;;;15.20;;
72198;SDS011;60103;51.014;16.992;2023-04-16T06:19:04;35.10;;;12.40;;
72198;SDS011;60103;51.014;16.992;2023-04-16T06:21:33;33.90;;;15.40;;
72198;SDS011;60103;51.014;16.992;2023-04-16T06:24:01;32.00;;;15.00;;
72198;SDS011;60103;51.014;16.992;2023-04-16T06:26:30;32.10;;;13.90;;
72198;SDS011;60103;51.014;16.992;2023-04-16T06:28:59;28.20;;;11.70;;
72198;SDS011;60103;51.014;16.992;2023-04-16T06:31:28;32.00;;;14.40;;
72198;SDS011;60103;51.014;16.992;2023-04-16T06:33:57;33.60;;;15.10;;
72198;SDS011;60103;51.014;16.992;2023-04-16T06:36:26;35.70;;;15.40;;
72198;SDS011;60103;51.014;16.992;2023-04-16T06:38:56;33.10;;;15.10;;
72198;SDS011;60103;51.014;16.992;2023-04-16T06:41:25;36.40;;;16.40;;
72198;SDS011;60103;51.014;16.992;2023-04-16T06:43:54;39.20;;;17.00;;
72198;SDS011;60103;51.014;16.992;2023-04-16T06:46:23;36.90;;;16.20;;
72198;SDS011;60103;51.014;16.992;2023-04-16T06:48:52;33.80;;;16.20;;
72198;SDS011;60103;51.014;16.992;2023-04-16T06:51:21;32.70;;;15.80;;
72198;SDS011;60103;51.014;16.992;2023-04-16T06:53:49;35.40;;;16.90;;
72198;SDS011;60103;51.014;16.992;2023-04-16T06:56:18;36.20;;;16.90;;
72198;SDS011;60103;51.014;16.992;2023-04-16T06:58:47;37.80;;;17.70;;
72198;SDS011;60103;51.014;16.992;2023-04-16T07:01:17;38.30;;;16.50;;
72198;SDS011;60103;51.014;16.992;2023-04-16T07:03:46;34.50;;;16.00;;
72198;SDS011;60103;51.014;16.992;2023-04-16T07:06:15;35.10;;;16.40;;
72198;SDS011;60103;51.014;16.992;2023-04-16T07:08:44;34.20;;;15.90;;
72198;SDS011;60103;51.014;16.992;2023-04-16T07:11:13;34.10;;;17.00;;
72198;SDS011;60103;51.014;16.992;2023-04-16T07:13:42;31.70;;;15.10;;
72198;SDS011;60103;51.014;16.992;2023-04-16T07:16:10;38.50;;;19.20;;
72198;SDS011;60103;51.014;16.992;2023-04-16T07:18:39;33.60;;;17.00;;
72198;SDS011;60103;51.014;16.992;2023-04-16T07:21:07;33.60;;;16.70;;
72198;SDS011;60103;51.014;16.992;2023-04-16T07:23:36;30.60;;;16.30;;
72198;SDS011;60103;51.014;16.992;2023-04-16T07:26:05;29.60;;;15.10;;
72198;SDS011;60103;51.014;16.992;2023-04-16T07:28:34;29.10;;;14.30;;
72198;SDS011;60103;51.014;16.992;2023-04-16T07:31:03;29.10;;;13.70;;
72198;SDS011;60103;51.014;16.992;2023-04-16T07:33:31;25.20;;;12.30;;
72198;SDS011;60103;51.014;16.992;2023-04-16T07:36:00;28.80;;;16.20;;
72198;SDS011;60103;51.014;16.992;2023-04-16T07:38:29;28.80;;;14.70;;
72198;SDS011;60103;51.014;16.992;2023-04-16T07:40:58;28.80;;;14.30;;
72198;SDS011;60103;51.014;16.992;2023-04-16T07:43:26;27.70;;;14.80;;
72198;SDS011;60103;51.014;16.992;2023-04-16T07:45:55;28.60;;;14.80;;
72198;SDS011;60103;51.014;16.992;2023-04-16T07:48:25;26.20;;;13.10;;
72198;SDS011;60103;51.014;16.992;2023-04-16T07:50:55;26.00;;;13.00;;
72198;SDS011;60103;51.014;16.992;2023-04-16T07:53:24;29.10;;;14.10;;
72198;SDS011;60103;51.014;16.992;2023-04-16T07:55:53;27.90;;;13.90;;
72198;SDS011;60103;51.014;16.992;2023-04-16T07:58:22;26.30;;;13.60;;
72198;SDS011;60103;51.014;16.992;2023-04-16T08:00:50;26.80;;;13.60;;
72198;SDS011;60103;51.014;16.992;2023-04-16T08:03:19;25.60;;;13.20;;
72198;SDS011;60103;51.014;16.992;2023-04-16T08:05:49;24.90;;;12.40;;
72198;SDS011;60103;51.014;16.992;2023-04-16T08:08:18;30.20;;;15.30;;
72198;SDS011;60103;51.014;16.992;2023-04-16T08:10:46;28.30;;;15.20;;
72198;SDS011;60103;51.014;16.992;2023-04-16T08:13:15;29.80;;;14.60;;
72198;SDS011;60103;51.014;16.992;2023-04-16T08:15:44;25.80;;;13.10;;
72198;SDS011;60103;51.014;16.992;2023-04-16T08:18:13;26.00;;;13.80;;
72198;SDS011;60103;51.014;16.992;2023-04-16T08:20:43;32.50;;;16.20;;
72198;SDS011;60103;51.014;16.992;2023-04-16T08:23:11;27.20;;;13.50;;
72198;SDS011;60103;51.014;16.992;2023-04-16T08:25:40;26.30;;;14.20;;
72198;SDS011;60103;51.014;16.992;2023-04-16T08:28:09;28.10;;;15.00;;
72198;SDS011;60103;51.014;16.992;2023-04-16T08:30:42;29.60;;;15.50;;
72198;SDS011;60103;51.014;16.992;2023-04-16T08:33:15;26.20;;;13.60;;
72198;SDS011;60103;51.014;16.992;2023-04-16T08:35:44;23.50;;;12.00;;
72198;SDS011;60103;51.014;16.992;2023-04-16T08:38:13;28.10;;;14.50;;
72198;SDS011;60103;51.014;16.992;2023-04-16T08:40:42;25.80;;;14.10;;
72198;SDS011;60103;51.014;16.992;2023-04-16T08:43:12;30.50;;;15.60;;
72198;SDS011;60103;51.014;16.992;2023-04-16T08:45:42;25.80;;;13.10;;
72198;SDS011;60103;51.014;16.992;2023-04-16T08:48:15;27.70;;;13.90;;
72198;SDS011;60103;51.014;16.992;2023-04-16T08:50:51;28.30;;;14.10;;
72198;SDS011;60103;51.014;16.992;2023-04-16T08:56:38;28.10;;;15.60;;
72198;SDS011;60103;51.014;16.992;2023-04-16T08:59:10;26.60;;;13.30;;
72198;SDS011;60103;51.014;16.992;2023-04-16T09:01:40;26.40;;;13.60;;
72198;SDS011;60103;51.014;16.992;2023-04-16T09:04:09;25.80;;;13.20;;
72198;SDS011;60103;51.014;16.992;2023-04-16T09:06:40;26.70;;;14.20;;
72198;SDS011;60103;51.014;16.992;2023-04-16T09:09:10;24.10;;;12.50;;
72198;SDS011;60103;51.014;16.992;2023-04-16T09:11:40;23.30;;;11.80;;
72198;SDS011;60103;51.014;16.992;2023-04-16T09:14:10;23.00;;;11.90;;
72198;SDS011;60103;51.014;16.992;2023-04-16T09:16:39;24.30;;;13.20;;
72198;SDS011;60103;51.014;16.992;2023-04-16T09:19:15;21.70;;;11.20;;
72198;SDS011;60103;51.014;16.992;2023-04-16T09:21:44;24.50;;;11.70;;
72198;SDS011;60103;51.014;16.992;2023-04-16T09:24:15;21.30;;;10.90;;
72198;SDS011;60103;51.014;16.992;2023-04-16T09:26:44;19.00;;;9.40;;
72198;SDS011;60103;51.014;16.992;2023-04-16T09:32:29;21.20;;;10.90;;
72198;SDS011;60103;51.014;16.992;2023-04-16T09:35:03;21.70;;;10.70;;
72198;SDS011;60103;51.014;16.992;2023-04-16T09:37:35;19.90;;;10.20;;
72198;SDS011;60103;51.014;16.992;2023-04-16T09:40:06;23.40;;;11.60;;
72198;SDS011;60103;51.014;16.992;2023-04-16T09:42:36;22.40;;;11.40;;
72198;SDS011;60103;51.014;16.992;2023-04-16T09:45:05;20.60;;;10.40;;
72198;SDS011;60103;51.014;16.992;2023-04-16T09:47:40;17.30;;;9.10;;
72198;SDS011;60103;51.014;16.992;2023-04-16T09:50:19;22.10;;;11.00;;
72198;SDS011;60103;51.014;16.992;2023-04-16T09:52:48;18.90;;;9.40;;
72198;SDS011;60103;51.014;16.992;2023-04-16T09:55:21;20.80;;;10.10;;
72198;SDS011;60103;51.014;16.992;2023-04-16T09:57:57;20.20;;;10.00;;
72198;SDS011;60103;51.014;16.992;2023-04-16T10:00:29;19.20;;;9.40;;
72198;SDS011;60103;51.014;16.992;2023-04-16T10:03:10;17.80;;;8.10;;
72198;SDS011;60103;51.014;16.992;2023-04-16T10:05:39;19.60;;;9.10;;
72198;SDS011;60103;51.014;16.992;2023-04-16T10:08:10;21.00;;;10.00;;
72198;SDS011;60103;51.014;16.992;2023-04-16T10:10:42;19.60;;;9.10;;
72198;SDS011;60103;51.014;16.992;2023-04-16T10:13:11;16.00;;;7.10;;
72198;SDS011;60103;51.014;16.992;2023-04-16T10:15:44;18.50;;;9.30;;
72198;SDS011;60103;51.014;16.992;2023-04-16T10:18:13;18.30;;;8.80;;
72198;SDS011;60103;51.014;16.992;2023-04-16T10:20:44;18.10;;;8.30;;
72198;SDS011;60103;51.014;16.992;2023-04-16T10:23:13;16.20;;;7.40;;
72198;SDS011;60103;51.014;16.992;2023-04-16T10:25:42;16.40;;;7.40;;
72198;SDS011;60103;51.014;16.992;2023-04-16T10:28:12;14.50;;;6.60;;
72198;SDS011;60103;51.014;16.992;2023-04-16T10:30:46;14.70;;;6.70;;
72198;SDS011;60103;51.014;16.992;2023-04-16T10:33:24;15.20;;;7.40;;
72198;SDS011;60103;51.014;16.992;2023-04-16T10:36:11;19.60;;;7.80;;
72198;SDS011;60103;51.014;16.992;2023-04-16T10:38:44;14.70;;;6.80;;
72198;SDS011;60103;51.014;16.992;2023-04-16T10:41:14;14.60;;;7.10;;
72198;SDS011;60103;51.014;16.992;2023-04-16T10:43:44;14.50;;;7.50;;
72198;SDS011;60103;51.014;16.992;2023-04-16T10:54:28;8.40;;;3.30;;
72198;SDS011;60103;51.014;16.992;2023-04-16T10:56:58;11.50;;;4.70;;
72198;SDS011;60103;51.014;16.992;2023-04-16T10:59:31;10.00;;;4.00;;
72198;SDS011;60103;51.014;16.992;2023-04-16T11:02:14;8.80;;;3.40;;
72198;SDS011;60103;51.014;16.992;2023-04-16T11:04:46;8.30;;;3.10;;
72198;SDS011;60103;51.014;16.992;2023-04-16T11:07:18;10.10;;;3.80;;
72198;SDS011;60103;51.014;16.992;2023-04-16T11:12:23;8.00;;;3.00;;
72198;SDS011;60103;51.014;16.992;2023-04-16T11:15:00;7.80;;;2.50;;
72198;SDS011;60103;51.014;16.992;2023-04-16T11:20:16;6.60;;;2.00;;
72198;SDS011;60103;51.014;16.992;2023-04-16T11:22:48;6.90;;;2.10;;
72198;SDS011;60103;51.014;16.992;2023-04-16T11:25:28;7.20;;;2.00;;
72198;SDS011;60103;51.014;16.992;2023-04-16T11:27:58;7.10;;;1.90;;
72198;SDS011;60103;51.014;16.992;2023-04-16T11:30:30;6.60;;;1.80;;
72198;SDS011;60103;51.014;16.992;2023-04-16T11:33:04;6.60;;;2.20;;
72198;SDS011;60103;51.014;16.992;2023-04-16T11:35:34;7.00;;;2.10;;
72198;SDS011;60103;51.014;16.992;2023-04-16T11:38:03;7.40;;;1.80;;
72198;SDS011;60103;51.014;16.992;2023-04-16T11:40:34;7.00;;;2.60;;
72198;SDS011;60103;51.014;16.992;2023-04-16T11:43:05;6.80;;;2.50;;
72198;SDS011;60103;51.014;16.992;2023-04-16T11:45:57;8.80;;;2.30;;
72198;SDS011;60103;51.014;16.992;2023-04-16T11:48:50;8.20;;;2.00;;
72198;SDS011;60103;51.014;16.992;2023-04-16T11:51:20;9.60;;;2.00;;
72198;SDS011;60103;51.014;16.992;2023-04-16T11:53:52;8.00;;;2.70;;
72198;SDS011;60103;51.014;16.992;2023-04-16T11:56:28;7.90;;;2.90;;
72198;SDS011;60103;51.014;16.992;2023-04-16T11:59:08;9.20;;;2.70;;
72198;SDS011;60103;51.014;16.992;2023-04-16T12:01:42;7.10;;;2.10;;
72198;SDS011;60103;51.014;16.992;2023-04-16T12:04:14;7.10;;;2.40;;
72198;SDS011;60103;51.014;16.992;2023-04-16T12:09:32;6.70;;;2.10;;
72198;SDS011;60103;51.014;16.992;2023-04-16T12:14:59;8.30;;;2.80;;
72198;SDS011;60103;51.014;16.992;2023-04-16T12:17:31;6.50;;;1.90;;
72198;SDS011;60103;51.014;16.992;2023-04-16T12:20:02;8.10;;;2.60;;
72198;SDS011;60103;51.014;16.992;2023-04-16T12:22:43;5.40;;;1.60;;
72198;SDS011;60103;51.014;16.992;2023-04-16T12:25:16;6.60;;;1.80;;
72198;SDS011;60103;51.014;16.992;2023-04-16T12:27:49;7.00;;;2.20;;
72198;SDS011;60103;51.014;16.992;2023-04-16T12:30:21;6.50;;;2.10;;
72198;SDS011;60103;51.014;16.992;2023-04-16T12:35:46;6.60;;;2.10;;
72198;SDS011;60103;51.014;16.992;2023-04-16T12:38:15;6.70;;;2.30;;
72198;SDS011;60103;51.014;16.992;2023-04-16T12:40:44;7.80;;;2.90;;
72198;SDS011;60103;51.014;16.992;2023-04-16T12:43:13;6.30;;;2.10;;
72198;SDS011;60103;51.014;16.992;2023-04-16T12:45:42;6.20;;;2.10;;
72198;SDS011;60103;51.014;16.992;2023-04-16T12:48:11;7.40;;;2.70;;
72198;SDS011;60103;51.014;16.992;2023-04-16T12:50:39;6.90;;;2.20;;
72198;SDS011;60103;51.014;16.992;2023-04-16T12:53:11;7.10;;;2.20;;
72198;SDS011;60103;51.014;16.992;2023-04-16T12:55:40;6.50;;;2.10;;
72198;SDS011;60103;51.014;16.992;2023-04-16T12:58:09;7.10;;;2.40;;
72198;SDS011;60103;51.014;16.992;2023-04-16T13:00:39;7.50;;;2.40;;
72198;SDS011;60103;51.014;16.992;2023-04-16T13:03:08;6.80;;;2.40;;
72198;SDS011;60103;51.014;16.992;2023-04-16T13:05:37;6.70;;;2.40;;
72198;SDS011;60103;51.014;16.992;2023-04-16T13:08:07;7.30;;;2.20;;
72198;SDS011;60103;51.014;16.992;2023-04-16T13:10:35;6.90;;;2.20;;
72198;SDS011;60103;51.014;16.992;2023-04-16T13:13:04;7.70;;;2.40;;
72198;SDS011;60103;51.014;16.992;2023-04-16T13:15:33;6.40;;;2.10;;
72198;SDS011;60103;51.014;16.992;2023-04-16T13:18:02;5.80;;;1.70;;
72198;SDS011;60103;51.014;16.992;2023-04-16T13:20:32;6.40;;;2.00;;
72198;SDS011;60103;51.014;16.992;2023-04-16T13:23:01;6.30;;;2.10;;
72198;SDS011;60103;51.014;16.992;2023-04-16T13:25:32;6.30;;;1.80;;
72198;SDS011;60103;51.014;16.992;2023-04-16T13:28:01;7.50;;;2.20;;
72198;SDS011;60103;51.014;16.992;2023-04-16T13:30:30;5.60;;;1.80;;
72198;SDS011;60103;51.014;16.992;2023-04-16T13:33:01;6.60;;;1.80;;
72198;SDS011;60103;51.014;16.992;2023-04-16T13:35:30;6.70;;;2.30;;
72198;SDS011;60103;51.014;16.992;2023-04-16T13:38:00;7.40;;;2.90;;
72198;SDS011;60103;51.014;16.992;2023-04-16T13:40:30;7.40;;;2.70;;
72198;SDS011;60103;51.014;16.992;2023-04-16T13:43:00;7.00;;;2.80;;
72198;SDS011;60103;51.014;16.992;2023-04-16T13:45:31;9.30;;;2.90;;
72198;SDS011;60103;51.014;16.992;2023-04-16T13:48:00;7.00;;;2.80;;
72198;SDS011;60103;51.014;16.992;2023-04-16T13:50:30;7.70;;;2.60;;
72198;SDS011;60103;51.014;16.992;2023-04-16T13:53:00;9.40;;;3.40;;
72198;SDS011;60103;51.014;16.992;2023-04-16T13:55:32;9.50;;;3.50;;
72198;SDS011;60103;51.014;16.992;2023-04-16T13:58:01;8.70;;;2.70;;
72198;SDS011;60103;51.014;16.992;2023-04-16T14:00:31;8.80;;;3.00;;
72198;SDS011;60103;51.014;16.992;2023-04-16T14:03:03;6.80;;;2.60;;
72198;SDS011;60103;51.014;16.992;2023-04-16T14:05:34;8.00;;;2.60;;
72198;SDS011;60103;51.014;16.992;2023-04-16T14:08:03;7.60;;;2.70;;
72198;SDS011;60103;51.014;16.992;2023-04-16T14:10:32;7.40;;;2.60;;
72198;SDS011;60103;51.014;16.992;2023-04-16T14:13:02;7.00;;;2.60;;
72198;SDS011;60103;51.014;16.992;2023-04-16T14:15:32;7.80;;;2.80;;
72198;SDS011;60103;51.014;16.992;2023-04-16T14:18:02;7.50;;;2.80;;
72198;SDS011;60103;51.014;16.992;2023-04-16T14:20:31;7.90;;;3.10;;
72198;SDS011;60103;51.014;16.992;2023-04-16T14:23:02;7.60;;;2.70;;
72198;SDS011;60103;51.014;16.992;2023-04-16T14:25:32;9.20;;;2.70;;
72198;SDS011;60103;51.014;16.992;2023-04-16T14:28:01;8.10;;;3.00;;
72198;SDS011;60103;51.014;16.992;2023-04-16T14:30:30;9.40;;;2.70;;
72198;SDS011;60103;51.014;16.992;2023-04-16T14:33:00;8.50;;;2.90;;
72198;SDS011;60103;51.014;16.992;2023-04-16T14:35:30;8.10;;;3.10;;
72198;SDS011;60103;51.014;16.992;2023-04-16T14:38:02;7.50;;;2.80;;
72198;SDS011;60103;51.014;16.992;2023-04-16T14:40:33;8.60;;;2.70;;
72198;SDS011;60103;51.014;16.992;2023-04-16T14:43:03;6.70;;;2.60;;
72198;SDS011;60103;51.014;16.992;2023-04-16T14:45:33;7.30;;;3.00;;
72198;SDS011;60103;51.014;16.992;2023-04-16T14:48:07;8.20;;;3.60;;
72198;SDS011;60103;51.014;16.992;2023-04-16T14:50:37;8.30;;;3.80;;
72198;SDS011;60103;51.014;16.992;2023-04-16T14:53:11;7.20;;;2.80;;
72198;SDS011;60103;51.014;16.992;2023-04-16T14:55:41;7.30;;;2.90;;
72198;SDS011;60103;51.014;16.992;2023-04-16T14:58:09;8.50;;;2.90;;
72198;SDS011;60103;51.014;16.992;2023-04-16T15:00:39;7.40;;;2.80;;
72198;SDS011;60103;51.014;16.992;2023-04-16T15:03:08;7.20;;;2.80;;
72198;SDS011;60103;51.014;16.992;2023-04-16T15:05:50;7.10;;;2.70;;
72198;SDS011;60103;51.014;16.992;2023-04-16T15:08:23;7.20;;;2.50;;